Ever Develop — 3FLF8 — position and weather

sailwx.info

Track history (hours):
 
Tides and Currents Weather Stations Pressure Air Temp Water Temp Dewpoint Dewpoint Depression Visibility Wind Speed Wind Dir Waves Ship Positions

Ever Develop

Last reported at 2017-Jun-05 00:47 UTC. Time now 2017-Jun-29 16:12 UTC.
Position N 01°17' E 103°21'.
Warning: this ship's position is 24 days out of date.

Type: Ship (hazmat cat D). MMSI: 356391000.

Date/timePositionNaut miles runAvg speedWind from/ knotsBaromVisibWave heightAir tempDewpointWater temp
2017-Jun-05 00:47N 01°17' E 103°21'413.0
2017-Jun-05 00:30N 01°15' E 103°24'713.4
2017-Jun-05 00:00N 01°13' E 103°30'713.6
2017-Jun-04 23:30N 01°12' E 103°37'5 9.9
2017-Jun-04 23:00N 01°14' E 103°42'510.0
2017-Jun-04 22:30N 01°16' E 103°46'1 1.4
2017-Jun-04 22:00N 01°15' E 103°47'0 0.0
2017-Jun-04 21:26N 01°15' E 103°47'0 0.0
2017-Jun-04 20:59N 01°15' E 103°47'0 0.0
2017-Jun-04 20:23N 01°15' E 103°47'0 0.0
2017-Jun-04 19:59N 01°15' E 103°47'0 0.0
2017-Jun-04 19:29N 01°15' E 103°47'0 0.0
2017-Jun-04 18:59N 01°15' E 103°47'0 0.0
2017-Jun-04 18:29N 01°15' E 103°47'0 0.0
2017-Jun-04 17:59N 01°15' E 103°47'0 0.0
2017-Jun-04 17:29N 01°15' E 103°47'0 0.0
2017-Jun-04 16:59N 01°15' E 103°47'0 0.0
2017-Jun-04 16:26N 01°15' E 103°47'0 0.1
2017-Jun-04 15:47N 01°15' E 103°47'0 0.2
2017-Jun-04 15:29N 01°15' E 103°47'0 0.0
2017-Jun-04 14:59N 01°15' E 103°47'0 0.0
2017-Jun-04 14:29N 01°15' E 103°47'0 0.0
2017-Jun-04 13:29N 01°15' E 103°47'0 0.0
2017-Jun-04 12:59N 01°15' E 103°47'0 0.0
2017-Jun-04 12:17N 01°15' E 103°47'0 0.0
2017-Jun-04 11:53N 01°15' E 103°47'0 0.0
2017-Jun-04 11:29N 01°15' E 103°47'0 0.0
2017-Jun-04 10:56N 01°15' E 103°47'0 0.0
2017-Jun-04 10:08N 01°15' E 103°47'0 0.0
2017-Jun-04 09:50N 01°15' E 103°47'0 0.0
2017-Jun-04 09:29N 01°15' E 103°47'0 0.0
2017-Jun-04 08:56N 01°15' E 103°47'0 0.0
2017-Jun-04 08:30N 01°15' E 103°47'1 1.2
2017-Jun-04 08:00N 01°15' E 103°47'1 1.7
2017-Jun-04 07:30N 01°14' E 103°47'0 0.5
2017-Jun-04 07:00N 01°14' E 103°48'0 0.0
2017-Jun-04 06:30N 01°14' E 103°48'0 0.0
2017-Jun-04 06:01N 01°14' E 103°48'0 0.0
2017-Jun-04 05:30N 01°14' E 103°48'0 0.0
2017-Jun-04 05:00N 01°14' E 103°48'0 0.1
2017-Jun-04 04:30N 01°14' E 103°48'0 0.1
2017-Jun-04 04:00N 01°14' E 103°48'0 0.0
2017-Jun-04 03:30N 01°14' E 103°48'0 0.0
2017-Jun-04 03:01N 01°14' E 103°48'0 0.0
2017-Jun-04 02:30N 01°14' E 103°48'0 0.0
2017-Jun-04 02:00N 01°14' E 103°48'0 0.0
2017-Jun-04 01:30N 01°14' E 103°48'0 0.0
2017-Jun-04 01:00N 01°14' E 103°48'0 0.1
2017-Jun-04 00:30N 01°14' E 103°48'0 0.1
2017-Jun-04 00:00N 01°14' E 103°47'0 0.1
2017-Jun-03 23:30N 01°14' E 103°47'0 0.2
2017-Jun-03 23:00N 01°14' E 103°47'0 0.1
2017-Jun-03 22:30N 01°14' E 103°47'0 0.1
2017-Jun-03 22:00N 01°14' E 103°47'0 0.0
2017-Jun-03 21:30N 01°14' E 103°47'0 0.0
2017-Jun-03 21:00N 01°14' E 103°47'0 0.0
2017-Jun-03 20:30N 01°14' E 103°47'0 0.0
2017-Jun-03 20:00N 01°14' E 103°47'0 0.1
2017-Jun-03 19:30N 01°14' E 103°47'0 0.0
2017-Jun-03 19:00N 01°14' E 103°47'0 0.1
2017-Jun-03 18:30N 01°14' E 103°47'0 0.1
2017-Jun-03 18:00N 01°14' E 103°47'0 0.0
2017-Jun-03 17:30N 01°14' E 103°47'0 0.0
2017-Jun-03 17:00N 01°14' E 103°47'0 0.1
2017-Jun-03 16:30N 01°14' E 103°47'0 0.0
2017-Jun-03 16:00N 01°14' E 103°47'0 0.1
2017-Jun-03 15:30N 01°14' E 103°47'1 2.9
2017-Jun-03 15:00N 01°15' E 103°46'1010.1
2017-Jun-03 14:00N 01°12' E 103°36'4 7.5
2017-Jun-03 13:31N 01°13' E 103°33'4 7.4
2017-Jun-03 12:59N 01°11' E 103°29'0 0.1
2017-Jun-03 12:29N 01°11' E 103°29'0 0.2
2017-Jun-03 11:59N 01°11' E 103°29'1 1.2
2017-Jun-03 11:30N 01°11' E 103°29'0 0.3
2017-Jun-03 11:00N 01°12' E 103°29'0 0.6
2017-Jun-03 10:30N 01°11' E 103°29'0 0.4
2017-Jun-03 10:00N 01°11' E 103°28'0 0.5
2017-Jun-03 09:30N 01°11' E 103°28'2 3.7
2017-Jun-03 09:00N 01°12' E 103°30'5 9.6
2017-Jun-03 08:30N 01°16' E 103°33'4 8.1
2017-Jun-03 08:00N 01°20' E 103°33'2 3.0
2017-Jun-03 07:30N 01°22' E 103°33'0 0.1
2017-Jun-03 07:00N 01°22' E 103°33'0 0.0
2017-Jun-03 06:29N 01°22' E 103°33'0 0.0
2017-Jun-03 05:59N 01°22' E 103°33'0 0.0
2017-Jun-03 05:23N 01°22' E 103°33'0 0.0
2017-Jun-03 04:59N 01°22' E 103°33'0 0.0
2017-Jun-03 04:29N 01°22' E 103°33'0 0.0
2017-Jun-03 03:56N 01°22' E 103°33'0 0.0
2017-Jun-03 03:29N 01°22' E 103°33'0 0.0
2017-Jun-03 02:59N 01°22' E 103°33'0 0.0
2017-Jun-03 02:20N 01°22' E 103°33'0 0.0
2017-Jun-03 01:59N 01°22' E 103°33'0 0.0
2017-Jun-03 01:26N 01°22' E 103°33'0 0.0
2017-Jun-03 00:59N 01°22' E 103°33'0 0.0
2017-Jun-03 00:11N 01°22' E 103°33'0 0.0
2017-Jun-02 23:53N 01°22' E 103°33'0 0.0
2017-Jun-02 23:29N 01°22' E 103°33'0 0.0
2017-Jun-02 22:56N 01°22' E 103°33'0 0.0
2017-Jun-02 22:20N 01°22' E 103°33'0 0.2
2017-Jun-02 21:59N 01°22' E 103°33'0 0.1
2017-Jun-02 21:29N 01°22' E 103°33'0 0.0
2017-Jun-02 20:59N 01°22' E 103°33'0 0.0
2017-Jun-02 20:23N 01°22' E 103°33'0 0.0
2017-Jun-02 19:59N 01°22' E 103°33'0 0.0
2017-Jun-02 19:14N 01°22' E 103°33'0 0.0
2017-Jun-02 18:56N 01°22' E 103°33'0 0.0
2017-Jun-02 18:29N 01°22' E 103°33'0 0.0
2017-Jun-02 17:50N 01°22' E 103°33'0 0.0
2017-Jun-02 17:30N 01°22' E 103°33'1 1.5
2017-Jun-02 17:00N 01°21' E 103°33'3 5.2
2017-Jun-02 16:30N 01°18' E 103°33'4 7.9
2017-Jun-02 16:00N 01°15' E 103°32'4 8.5
2017-Jun-02 15:30N 01°11' E 103°30'1 2.6
2017-Jun-02 14:59N 01°12' E 103°28'1 0.8
2017-Jun-02 13:59N 01°11' E 103°28'0 0.5
2017-Jun-02 13:30N 01°11' E 103°28'1 2.8
2017-Jun-02 12:59N 01°11' E 103°26'4 7.4
2017-Jun-02 12:30N 01°13' E 103°23'610.7
2017-Jun-02 11:59N 01°17' E 103°19'  
Track history (hours):
 
Tides and Currents Weather Stations Pressure Air Temp Water Temp Dewpoint Dewpoint Depression Visibility Wind Speed Wind Dir Waves Ship Positions

Ever Develop

Last reported at 2017-Jun-05 00:47 UTC. Time now 2017-Jun-29 16:12 UTC.
Position N 01°17' E 103°21'.
Warning: this ship's position is 24 days out of date.

Type: Ship (hazmat cat D). MMSI: 356391000.

Date/timePositionNaut miles runAvg speedWind from/ knotsBaromVisibWave heightAir tempDewpointWater temp
2017-Jun-05 00:47N 01°17' E 103°21'413.0
2017-Jun-05 00:30N 01°15' E 103°24'713.4
2017-Jun-05 00:00N 01°13' E 103°30'713.6
2017-Jun-04 23:30N 01°12' E 103°37'5 9.9
2017-Jun-04 23:00N 01°14' E 103°42'510.0
2017-Jun-04 22:30N 01°16' E 103°46'1 1.4
2017-Jun-04 22:00N 01°15' E 103°47'0 0.0
2017-Jun-04 21:26N 01°15' E 103°47'0 0.0
2017-Jun-04 20:59N 01°15' E 103°47'0 0.0
2017-Jun-04 20:23N 01°15' E 103°47'0 0.0
2017-Jun-04 19:59N 01°15' E 103°47'0 0.0
2017-Jun-04 19:29N 01°15' E 103°47'0 0.0
2017-Jun-04 18:59N 01°15' E 103°47'0 0.0
2017-Jun-04 18:29N 01°15' E 103°47'0 0.0
2017-Jun-04 17:59N 01°15' E 103°47'0 0.0
2017-Jun-04 17:29N 01°15' E 103°47'0 0.0
2017-Jun-04 16:59N 01°15' E 103°47'0 0.0
2017-Jun-04 16:26N 01°15' E 103°47'0 0.1
2017-Jun-04 15:47N 01°15' E 103°47'0 0.2
2017-Jun-04 15:29N 01°15' E 103°47'0 0.0
2017-Jun-04 14:59N 01°15' E 103°47'0 0.0
2017-Jun-04 14:29N 01°15' E 103°47'0 0.0
2017-Jun-04 13:29N 01°15' E 103°47'0 0.0
2017-Jun-04 12:59N 01°15' E 103°47'0 0.0
2017-Jun-04 12:17N 01°15' E 103°47'0 0.0
2017-Jun-04 11:53N 01°15' E 103°47'0 0.0
2017-Jun-04 11:29N 01°15' E 103°47'0 0.0
2017-Jun-04 10:56N 01°15' E 103°47'0 0.0
2017-Jun-04 10:08N 01°15' E 103°47'0 0.0
2017-Jun-04 09:50N 01°15' E 103°47'0 0.0
2017-Jun-04 09:29N 01°15' E 103°47'0 0.0
2017-Jun-04 08:56N 01°15' E 103°47'0 0.0
2017-Jun-04 08:30N 01°15' E 103°47'1 1.2
2017-Jun-04 08:00N 01°15' E 103°47'1 1.7
2017-Jun-04 07:30N 01°14' E 103°47'0 0.5
2017-Jun-04 07:00N 01°14' E 103°48'0 0.0
2017-Jun-04 06:30N 01°14' E 103°48'0 0.0
2017-Jun-04 06:01N 01°14' E 103°48'0 0.0
2017-Jun-04 05:30N 01°14' E 103°48'0 0.0
2017-Jun-04 05:00N 01°14' E 103°48'0 0.1
2017-Jun-04 04:30N 01°14' E 103°48'0 0.1
2017-Jun-04 04:00N 01°14' E 103°48'0 0.0
2017-Jun-04 03:30N 01°14' E 103°48'0 0.0
2017-Jun-04 03:01N 01°14' E 103°48'0 0.0
2017-Jun-04 02:30N 01°14' E 103°48'0 0.0
2017-Jun-04 02:00N 01°14' E 103°48'0 0.0
2017-Jun-04 01:30N 01°14' E 103°48'0 0.0
2017-Jun-04 01:00N 01°14' E 103°48'0 0.1
2017-Jun-04 00:30N 01°14' E 103°48'0 0.1
2017-Jun-04 00:00N 01°14' E 103°47'0 0.1
2017-Jun-03 23:30N 01°14' E 103°47'0 0.2
2017-Jun-03 23:00N 01°14' E 103°47'0 0.1
2017-Jun-03 22:30N 01°14' E 103°47'0 0.1
2017-Jun-03 22:00N 01°14' E 103°47'0 0.0
2017-Jun-03 21:30N 01°14' E 103°47'0 0.0
2017-Jun-03 21:00N 01°14' E 103°47'0 0.0
2017-Jun-03 20:30N 01°14' E 103°47'0 0.0
2017-Jun-03 20:00N 01°14' E 103°47'0 0.1
2017-Jun-03 19:30N 01°14' E 103°47'0 0.0
2017-Jun-03 19:00N 01°14' E 103°47'0 0.1
2017-Jun-03 18:30N 01°14' E 103°47'0 0.1
2017-Jun-03 18:00N 01°14' E 103°47'0 0.0
2017-Jun-03 17:30N 01°14' E 103°47'0 0.0
2017-Jun-03 17:00N 01°14' E 103°47'0 0.1
2017-Jun-03 16:30N 01°14' E 103°47'0 0.0
2017-Jun-03 16:00N 01°14' E 103°47'0 0.1
2017-Jun-03 15:30N 01°14' E 103°47'1 2.9
2017-Jun-03 15:00N 01°15' E 103°46'1010.1
2017-Jun-03 14:00N 01°12' E 103°36'4 7.5
2017-Jun-03 13:31N 01°13' E 103°33'4 7.4
2017-Jun-03 12:59N 01°11' E 103°29'0 0.1
2017-Jun-03 12:29N 01°11' E 103°29'0 0.2
2017-Jun-03 11:59N 01°11' E 103°29'1 1.2
2017-Jun-03 11:30N 01°11' E 103°29'0 0.3
2017-Jun-03 11:00N 01°12' E 103°29'0 0.6
2017-Jun-03 10:30N 01°11' E 103°29'0 0.4
2017-Jun-03 10:00N 01°11' E 103°28'0 0.5
2017-Jun-03 09:30N 01°11' E 103°28'2 3.7
2017-Jun-03 09:00N 01°12' E 103°30'5 9.6
2017-Jun-03 08:30N 01°16' E 103°33'4 8.1
2017-Jun-03 08:00N 01°20' E 103°33'2 3.0
2017-Jun-03 07:30N 01°22' E 103°33'0 0.1
2017-Jun-03 07:00N 01°22' E 103°33'0 0.0
2017-Jun-03 06:29N 01°22' E 103°33'0 0.0
2017-Jun-03 05:59N 01°22' E 103°33'0 0.0
2017-Jun-03 05:23N 01°22' E 103°33'0 0.0
2017-Jun-03 04:59N 01°22' E 103°33'0 0.0
2017-Jun-03 04:29N 01°22' E 103°33'0 0.0
2017-Jun-03 03:56N 01°22' E 103°33'0 0.0
2017-Jun-03 03:29N 01°22' E 103°33'0 0.0
2017-Jun-03 02:59N 01°22' E 103°33'0 0.0
2017-Jun-03 02:20N 01°22' E 103°33'0 0.0
2017-Jun-03 01:59N 01°22' E 103°33'0 0.0
2017-Jun-03 01:26N 01°22' E 103°33'0 0.0
2017-Jun-03 00:59N 01°22' E 103°33'0 0.0
2017-Jun-03 00:11N 01°22' E 103°33'0 0.0
2017-Jun-02 23:53N 01°22' E 103°33'0 0.0
2017-Jun-02 23:29N 01°22' E 103°33'0 0.0
2017-Jun-02 22:56N 01°22' E 103°33'0 0.0
2017-Jun-02 22:20N 01°22' E 103°33'0 0.2
2017-Jun-02 21:59N 01°22' E 103°33'0 0.1
2017-Jun-02 21:29N 01°22' E 103°33'0 0.0
2017-Jun-02 20:59N 01°22' E 103°33'0 0.0
2017-Jun-02 20:23N 01°22' E 103°33'0 0.0
2017-Jun-02 19:59N 01°22' E 103°33'0 0.0
2017-Jun-02 19:14N 01°22' E 103°33'0 0.0
2017-Jun-02 18:56N 01°22' E 103°33'0 0.0
2017-Jun-02 18:29N 01°22' E 103°33'0 0.0
2017-Jun-02 17:50N 01°22' E 103°33'0 0.0
2017-Jun-02 17:30N 01°22' E 103°33'1 1.5
2017-Jun-02 17:00N 01°21' E 103°33'3 5.2
2017-Jun-02 16:30N 01°18' E 103°33'4 7.9
2017-Jun-02 16:00N 01°15' E 103°32'4 8.5
2017-Jun-02 15:30N 01°11' E 103°30'1 2.6
2017-Jun-02 14:59N 01°12' E 103°28'1 0.8
2017-Jun-02 13:59N 01°11' E 103°28'0 0.5
2017-Jun-02 13:30N 01°11' E 103°28'1 2.8
2017-Jun-02 12:59N 01°11' E 103°26'4 7.4
2017-Jun-02 12:30N 01°13' E 103°23'610.7
2017-Jun-02 11:59N 01°17' E 103°19'  

Dump ship's entire track history